sensor_id;sensor_type;location;lat;lon;timestamp;pressure;altitude;pressure_sealevel;temperature;humidity
16690;BME280;8458;52.220;9.884;2023-08-06T00:00:12;99959.31;;;17.33;100.00
16690;BME280;8458;52.220;9.884;2023-08-06T00:02:39;99962.63;;;17.35;100.00
16690;BME280;8458;52.220;9.884;2023-08-06T00:05:06;99964.78;;;17.38;100.00
16690;BME280;8458;52.220;9.884;2023-08-06T00:07:33;99947.44;;;17.36;100.00
16690;BME280;8458;52.220;9.884;2023-08-06T00:09:59;99955.38;;;17.34;100.00
16690;BME280;8458;52.220;9.884;2023-08-06T00:12:27;99948.09;;;17.33;100.00
16690;BME280;8458;52.220;9.884;2023-08-06T00:14:53;99938.56;;;17.34;100.00
16690;BME280;8458;52.220;9.884;2023-08-06T00:17:20;99938.56;;;17.34;100.00
16690;BME280;8458;52.220;9.884;2023-08-06T00:19:46;99931.47;;;17.37;100.00
16690;BME280;8458;52.220;9.884;2023-08-06T00:22:13;99931.47;;;17.37;100.00
16690;BME280;8458;52.220;9.884;2023-08-06T00:24:39;99928.03;;;17.40;100.00
16690;BME280;8458;52.220;9.884;2023-08-06T00:27:06;99924.06;;;17.41;100.00
16690;BME280;8458;52.220;9.884;2023-08-06T00:29:34;99922.41;;;17.40;100.00
16690;BME280;8458;52.220;9.884;2023-08-06T00:32:00;99926.38;;;17.39;100.00
16690;BME280;8458;52.220;9.884;2023-08-06T00:34:27;99918.13;;;17.43;100.00
16690;BME280;8458;52.220;9.884;2023-08-06T00:36:53;99912.50;;;17.43;100.00
16690;BME280;8458;52.220;9.884;2023-08-06T00:39:20;99901.31;;;17.43;100.00
16690;BME280;8458;52.220;9.884;2023-08-06T00:41:46;99897.19;;;17.40;100.00
16690;BME280;8458;52.220;9.884;2023-08-06T00:44:13;99895.38;;;17.35;100.00
16690;BME280;8458;52.220;9.884;2023-08-06T00:46:41;99888.78;;;17.31;100.00
16690;BME280;8458;52.220;9.884;2023-08-06T00:49:07;99885.50;;;17.29;100.00
16690;BME280;8458;52.220;9.884;2023-08-06T00:51:34;99883.19;;;17.31;100.00
16690;BME280;8458;52.220;9.884;2023-08-06T00:54:01;99879.25;;;17.32;100.00
16690;BME280;8458;52.220;9.884;2023-08-06T00:56:28;99884.84;;;17.32;100.00
16690;BME280;8458;52.220;9.884;2023-08-06T00:58:55;99885.66;;;17.33;100.00
16690;BME280;8458;52.220;9.884;2023-08-06T01:01:21;99881.88;;;17.37;100.00
16690;BME280;8458;52.220;9.884;2023-08-06T01:03:49;99878.56;;;17.35;100.00
16690;BME280;8458;52.220;9.884;2023-08-06T01:06:17;99871.31;;;17.34;100.00
16690;BME280;8458;52.220;9.884;2023-08-06T01:08:55;99867.19;;;17.32;100.00
16690;BME280;8458;52.220;9.884;2023-08-06T01:11:29;99858.97;;;17.35;100.00
16690;BME280;8458;52.220;9.884;2023-08-06T01:14:02;99858.97;;;17.35;100.00
16690;BME280;8458;52.220;9.884;2023-08-06T01:16:33;99858.44;;;17.33;100.00
16690;BME280;8458;52.220;9.884;2023-08-06T01:19:01;99866.38;;;17.31;100.00
16690;BME280;8458;52.220;9.884;2023-08-06T01:21:29;99860.78;;;17.31;100.00
16690;BME280;8458;52.220;9.884;2023-08-06T01:23:55;99864.22;;;17.28;100.00
16690;BME280;8458;52.220;9.884;2023-08-06T01:26:26;99857.81;;;17.28;100.00
16690;BME280;8458;52.220;9.884;2023-08-06T01:28:57;99854.69;;;17.29;100.00
16690;BME280;8458;52.220;9.884;2023-08-06T01:31:27;99851.03;;;17.29;100.00
16690;BME280;8458;52.220;9.884;2023-08-06T01:33:58;99842.97;;;17.27;100.00
16690;BME280;8458;52.220;9.884;2023-08-06T01:36:25;99847.59;;;17.23;100.00
16690;BME280;8458;52.220;9.884;2023-08-06T01:38:54;99845.13;;;17.22;100.00
16690;BME280;8458;52.220;9.884;2023-08-06T01:41:20;99838.84;;;17.16;100.00
16690;BME280;8458;52.220;9.884;2023-08-06T01:43:47;99832.63;;;17.10;100.00
16690;BME280;8458;52.220;9.884;2023-08-06T01:46:13;99831.78;;;17.10;100.00
16690;BME280;8458;52.220;9.884;2023-08-06T01:48:40;99827.84;;;17.11;100.00
16690;BME280;8458;52.220;9.884;2023-08-06T01:51:06;99823.88;;;17.12;100.00
16690;BME280;8458;52.220;9.884;2023-08-06T01:53:33;99816.63;;;17.11;100.00
16690;BME280;8458;52.220;9.884;2023-08-06T01:56:01;99825.50;;;17.13;100.00
16690;BME280;8458;52.220;9.884;2023-08-06T01:58:27;99823.88;;;17.12;100.00
16690;BME280;8458;52.220;9.884;2023-08-06T02:00:54;99818.75;;;17.05;100.00
16690;BME280;8458;52.220;9.884;2023-08-06T02:03:20;99823.56;;;17.05;100.00
16690;BME280;8458;52.220;9.884;2023-08-06T02:05:47;99813.50;;;17.03;100.00
16690;BME280;8458;52.220;9.884;2023-08-06T02:08:13;99813.00;;;17.01;100.00
16690;BME280;8458;52.220;9.884;2023-08-06T02:10:40;99812.19;;;17.01;100.00
16690;BME280;8458;52.220;9.884;2023-08-06T02:13:08;99818.59;;;17.01;100.00
16690;BME280;8458;52.220;9.884;2023-08-06T02:15:34;99820.75;;;17.05;100.00
16690;BME280;8458;52.220;9.884;2023-08-06T02:18:01;99821.06;;;17.03;100.00
16690;BME280;8458;52.220;9.884;2023-08-06T02:20:27;99823.06;;;17.02;100.00
16690;BME280;8458;52.220;9.884;2023-08-06T02:22:54;99820.25;;;17.02;100.00
16690;BME280;8458;52.220;9.884;2023-08-06T02:25:20;99816.94;;;17.00;100.00
16690;BME280;8458;52.220;9.884;2023-08-06T02:27:46;99815.31;;;16.99;100.00
16690;BME280;8458;52.220;9.884;2023-08-06T02:30:14;99809.72;;;16.99;100.00
16690;BME280;8458;52.220;9.884;2023-08-06T02:32:41;99824.88;;;16.98;100.00
16690;BME280;8458;52.220;9.884;2023-08-06T02:35:07;99810.53;;;17.00;100.00
16690;BME280;8458;52.220;9.884;2023-08-06T02:37:34;99819.25;;;16.98;100.00
16690;BME280;8458;52.220;9.884;2023-08-06T02:40:01;99808.06;;;16.98;100.00
16690;BME280;8458;52.220;9.884;2023-08-06T02:42:28;99796.06;;;16.98;100.00
16690;BME280;8458;52.220;9.884;2023-08-06T02:44:54;99799.19;;;16.96;100.00
16690;BME280;8458;52.220;9.884;2023-08-06T02:47:22;99792.75;;;16.96;100.00
16690;BME280;8458;52.220;9.884;2023-08-06T02:49:49;99785.50;;;16.95;100.00
16690;BME280;8458;52.220;9.884;2023-08-06T02:52:15;99787.66;;;16.98;100.00
16690;BME280;8458;52.220;9.884;2023-08-06T02:54:42;99783.69;;;16.99;100.00
16690;BME280;8458;52.220;9.884;2023-08-06T02:57:09;99775.13;;;16.95;100.00
16690;BME280;8458;52.220;9.884;2023-08-06T02:59:35;99770.84;;;16.89;100.00
16690;BME280;8458;52.220;9.884;2023-08-06T03:02:02;99768.38;;;16.88;100.00
16690;BME280;8458;52.220;9.884;2023-08-06T03:04:29;99767.00;;;16.85;100.00
16690;BME280;8458;52.220;9.884;2023-08-06T03:06:56;99760.31;;;16.86;100.00
16690;BME280;8458;52.220;9.884;2023-08-06T03:09:22;99758.31;;;16.87;100.00
16690;BME280;8458;52.220;9.884;2023-08-06T03:11:49;99755.53;;;16.87;100.00
16690;BME280;8458;52.220;9.884;2023-08-06T03:14:15;99750.75;;;16.87;100.00
16690;BME280;8458;52.220;9.884;2023-08-06T03:16:42;99739.56;;;16.87;100.00
16690;BME280;8458;52.220;9.884;2023-08-06T03:19:08;99746.59;;;16.84;100.00
16690;BME280;8458;52.220;9.884;2023-08-06T03:21:36;99743.50;;;16.86;100.00
16690;BME280;8458;52.220;9.884;2023-08-06T03:24:02;99733.97;;;16.87;100.00
16690;BME280;8458;52.220;9.884;2023-08-06T03:26:29;99738.53;;;16.83;100.00
16690;BME280;8458;52.220;9.884;2023-08-06T03:28:55;99738.53;;;16.83;100.00
16690;BME280;8458;52.220;9.884;2023-08-06T03:31:22;99734.09;;;16.82;100.00
16690;BME280;8458;52.220;9.884;2023-08-06T03:33:48;99743.66;;;16.81;100.00
16690;BME280;8458;52.220;9.884;2023-08-06T03:36:15;99728.16;;;16.83;100.00
16690;BME280;8458;52.220;9.884;2023-08-06T03:38:42;99736.88;;;16.82;100.00
16690;BME280;8458;52.220;9.884;2023-08-06T03:41:09;99738.53;;;16.83;100.00
16690;BME280;8458;52.220;9.884;2023-08-06T03:43:35;99737.22;;;16.80;100.00
16690;BME280;8458;52.220;9.884;2023-08-06T03:46:02;99729.66;;;16.81;100.00
16690;BME280;8458;52.220;9.884;2023-08-06T03:48:28;99736.41;;;16.80;100.00
16690;BME280;8458;52.220;9.884;2023-08-06T03:50:55;99729.66;;;16.81;100.00
16690;BME280;8458;52.220;9.884;2023-08-06T03:53:22;99729.66;;;16.81;100.00
16690;BME280;8458;52.220;9.884;2023-08-06T03:55:50;99729.31;;;16.74;100.00
16690;BME280;8458;52.220;9.884;2023-08-06T03:58:16;99719.94;;;16.70;100.00
16690;BME280;8458;52.220;9.884;2023-08-06T04:00:42;99716.97;;;16.66;100.00
16690;BME280;8458;52.220;9.884;2023-08-06T04:03:09;99714.03;;;16.62;100.00
16690;BME280;8458;52.220;9.884;2023-08-06T04:05:35;99714.16;;;16.57;100.00
16690;BME280;8458;52.220;9.884;2023-08-06T04:08:02;99706.09;;;16.56;100.00
16690;BME280;8458;52.220;9.884;2023-08-06T04:10:28;99714.81;;;16.54;100.00
16690;BME280;8458;52.220;9.884;2023-08-06T04:12:56;99708.25;;;16.50;100.00
16690;BME280;8458;52.220;9.884;2023-08-06T04:15:22;99710.53;;;16.48;100.00
16690;BME280;8458;52.220;9.884;2023-08-06T04:17:49;99715.47;;;16.42;100.00
16690;BME280;8458;52.220;9.884;2023-08-06T04:20:16;99718.25;;;16.34;100.00
16690;BME280;8458;52.220;9.884;2023-08-06T04:22:42;99710.69;;;16.25;100.00
16690;BME280;8458;52.220;9.884;2023-08-06T04:25:09;99717.75;;;16.23;100.00
16690;BME280;8458;52.220;9.884;2023-08-06T04:27:36;99711.66;;;16.21;100.00
16690;BME280;8458;52.220;9.884;2023-08-06T04:30:08;99720.53;;;16.14;100.00
16690;BME280;8458;52.220;9.884;2023-08-06T04:32:36;99720.19;;;16.07;100.00
16690;BME280;8458;52.220;9.884;2023-08-06T04:35:04;99723.63;;;16.04;100.00
16690;BME280;8458;52.220;9.884;2023-08-06T04:37:30;99715.75;;;16.06;100.00
16690;BME280;8458;52.220;9.884;2023-08-06T04:39:57;99723.47;;;16.09;100.00
16690;BME280;8458;52.220;9.884;2023-08-06T04:42:23;99722.81;;;16.12;100.00
16690;BME280;8458;52.220;9.884;2023-08-06T04:44:50;99730.56;;;16.15;100.00
16690;BME280;8458;52.220;9.884;2023-08-06T04:47:18;99731.56;;;16.19;100.00
16690;BME280;8458;52.220;9.884;2023-08-06T04:49:44;99726.63;;;16.16;100.00
16690;BME280;8458;52.220;9.884;2023-08-06T04:52:11;99732.88;;;16.13;100.00
16690;BME280;8458;52.220;9.884;2023-08-06T04:54:37;99721.50;;;16.09;100.00
16690;BME280;8458;52.220;9.884;2023-08-06T04:57:04;99724.63;;;16.08;100.00
16690;BME280;8458;52.220;9.884;2023-08-06T04:59:31;99735.81;;;16.08;100.00
16690;BME280;8458;52.220;9.884;2023-08-06T05:01:57;99730.22;;;16.08;100.00
16690;BME280;8458;52.220;9.884;2023-08-06T05:04:25;99727.56;;;16.03;100.00
16690;BME280;8458;52.220;9.884;2023-08-06T05:06:51;99726.56;;;15.99;100.00
16690;BME280;8458;52.220;9.884;2023-08-06T05:09:18;99728.53;;;15.98;100.00
16690;BME280;8458;52.220;9.884;2023-08-06T05:11:46;99722.63;;;16.00;100.00
16690;BME280;8458;52.220;9.884;2023-08-06T05:14:12;99724.78;;;16.03;100.00
16690;BME280;8458;52.220;9.884;2023-08-06T05:16:39;99725.25;;;16.05;100.00
16690;BME280;8458;52.220;9.884;2023-08-06T05:19:05;99722.16;;;16.06;100.00
16690;BME280;8458;52.220;9.884;2023-08-06T05:21:33;99725.25;;;16.05;100.00
16690;BME280;8458;52.220;9.884;2023-08-06T05:23:59;99718.22;;;16.07;100.00
16690;BME280;8458;52.220;9.884;2023-08-06T05:26:26;99726.13;;;16.14;100.00
16690;BME280;8458;52.220;9.884;2023-08-06T05:28:52;99724.97;;;16.15;100.00
16690;BME280;8458;52.220;9.884;2023-08-06T05:31:19;99730.91;;;16.22;100.00
16690;BME280;8458;52.220;9.884;2023-08-06T05:33:45;99722.38;;;16.27;100.00
16690;BME280;8458;52.220;9.884;2023-08-06T05:36:12;99724.19;;;16.32;100.00
16690;BME280;8458;52.220;9.884;2023-08-06T05:38:39;99718.09;;;16.39;100.00
16690;BME280;8458;52.220;9.884;2023-08-06T05:41:06;99720.75;;;16.44;100.00
16690;BME280;8458;52.220;9.884;2023-08-06T05:43:33;99718.94;;;16.48;100.00
16690;BME280;8458;52.220;9.884;2023-08-06T05:45:59;99720.41;;;16.54;100.00
16690;BME280;8458;52.220;9.884;2023-08-06T05:48:26;99726.53;;;16.56;100.00
16690;BME280;8458;52.220;9.884;2023-08-06T05:50:53;99725.69;;;16.64;100.00
16690;BME280;8458;52.220;9.884;2023-08-06T05:53:19;99734.56;;;16.66;100.00
16690;BME280;8458;52.220;9.884;2023-08-06T05:55:47;99726.03;;;16.72;100.00
16690;BME280;8458;52.220;9.884;2023-08-06T05:58:14;99729.47;;;16.77;100.00
16690;BME280;8458;52.220;9.884;2023-08-06T06:00:40;99717.81;;;16.84;100.00
16690;BME280;8458;52.220;9.884;2023-08-06T06:03:07;99712.53;;;16.91;100.00
16690;BME280;8458;52.220;9.884;2023-08-06T06:05:33;99713.34;;;17.00;100.00
16690;BME280;8458;52.220;9.884;2023-08-06T06:08:00;99699.69;;;17.08;100.00
16690;BME280;8458;52.220;9.884;2023-08-06T06:10:26;99698.34;;;17.05;100.00
16690;BME280;8458;52.220;9.884;2023-08-06T06:12:54;99697.34;;;17.10;100.00
16690;BME280;8458;52.220;9.884;2023-08-06T06:15:20;99705.56;;;17.15;100.00
16690;BME280;8458;52.220;9.884;2023-08-06T06:17:47;99699.47;;;17.22;100.00
16690;BME280;8458;52.220;9.884;2023-08-06T06:20:13;99708.50;;;17.27;100.00
16690;BME280;8458;52.220;9.884;2023-08-06T06:22:40;99706.53;;;17.28;100.00
16690;BME280;8458;52.220;9.884;2023-08-06T06:25:07;99703.88;;;17.31;100.00
16690;BME280;8458;52.220;9.884;2023-08-06T06:27:34;99693.69;;;17.35;100.00
16690;BME280;8458;52.220;9.884;2023-08-06T06:30:03;99699.91;;;17.41;100.00
16690;BME280;8458;52.220;9.884;2023-08-06T06:32:29;99692.00;;;17.43;100.00
16690;BME280;8458;52.220;9.884;2023-08-06T06:34:56;99687.00;;;17.49;100.00
16690;BME280;8458;52.220;9.884;2023-08-06T06:37:23;99694.06;;;17.55;100.00
16690;BME280;8458;52.220;9.884;2023-08-06T06:39:50;99691.13;;;17.60;100.00
16690;BME280;8458;52.220;9.884;2023-08-06T06:42:16;99686.13;;;17.66;100.00
16690;BME280;8458;52.220;9.884;2023-08-06T06:44:43;99689.25;;;17.64;100.00
16690;BME280;8458;52.220;9.884;2023-08-06T06:47:11;99685.44;;;17.69;100.00
16690;BME280;8458;52.220;9.884;2023-08-06T06:49:37;99687.44;;;17.68;100.00
16690;BME280;8458;52.220;9.884;2023-08-06T06:52:05;99688.09;;;17.74;100.00
16690;BME280;8458;52.220;9.884;2023-08-06T06:54:31;99680.47;;;17.74;100.00
16690;BME280;8458;52.220;9.884;2023-08-06T06:56:58;99686.72;;;17.80;100.00
16690;BME280;8458;52.220;9.884;2023-08-06T06:59:24;99687.00;;;17.87;100.00
16690;BME280;8458;52.220;9.884;2023-08-06T07:01:51;99681.59;;;17.91;100.00
16690;BME280;8458;52.220;9.884;2023-08-06T07:04:18;99677.09;;;17.99;100.00
16690;BME280;8458;52.220;9.884;2023-08-06T07:06:45;99681.00;;;18.06;100.00
16690;BME280;8458;52.220;9.884;2023-08-06T07:09:11;99683.25;;;18.13;100.00
16690;BME280;8458;52.220;9.884;2023-08-06T07:11:38;99680.88;;;18.24;100.00
16690;BME280;8458;52.220;9.884;2023-08-06T07:14:04;99681.63;;;18.33;100.00
16690;BME280;8458;52.220;9.884;2023-08-06T07:16:31;99682.63;;;18.37;99.06
16690;BME280;8458;52.220;9.884;2023-08-06T07:18:58;99674.31;;;18.41;98.45
16690;BME280;8458;52.220;9.884;2023-08-06T07:21:26;99684.78;;;18.53;99.10
16690;BME280;8458;52.220;9.884;2023-08-06T07:23:53;99692.44;;;18.64;99.29
16690;BME280;8458;52.220;9.884;2023-08-06T07:26:19;99687.91;;;18.72;98.57
16690;BME280;8458;52.220;9.884;2023-08-06T07:28:46;99676.28;;;18.83;97.43
16690;BME280;8458;52.220;9.884;2023-08-06T07:31:12;99677.25;;;18.87;96.60
16690;BME280;8458;52.220;9.884;2023-08-06T07:33:39;99672.59;;;18.91;95.53
16690;BME280;8458;52.220;9.884;2023-08-06T07:36:09;99670.84;;;18.98;95.07
16690;BME280;8458;52.220;9.884;2023-08-06T07:38:37;99668.78;;;19.08;95.49
16690;BME280;8458;52.220;9.884;2023-08-06T07:41:04;99666.22;;;19.15;93.91
16690;BME280;8458;52.220;9.884;2023-08-06T07:43:31;99673.97;;;19.18;92.80
16690;BME280;8458;52.220;9.884;2023-08-06T07:45:58;99673.63;;;19.20;91.74
16690;BME280;8458;52.220;9.884;2023-08-06T07:48:25;99674.66;;;19.15;93.19
16690;BME280;8458;52.220;9.884;2023-08-06T07:50:51;99675.13;;;19.17;92.27
16690;BME280;8458;52.220;9.884;2023-08-06T07:53:19;99681.56;;;19.17;90.92
16690;BME280;8458;52.220;9.884;2023-08-06T07:55:49;99682.16;;;19.23;91.52
16690;BME280;8458;52.220;9.884;2023-08-06T07:58:16;99679.63;;;19.30;91.19
16690;BME280;8458;52.220;9.884;2023-08-06T08:00:42;99675.75;;;19.35;89.77
16690;BME280;8458;52.220;9.884;2023-08-06T08:03:10;99681.59;;;19.42;90.76
16690;BME280;8458;52.220;9.884;2023-08-06T08:05:37;99670.63;;;19.49;90.69
16690;BME280;8458;52.220;9.884;2023-08-06T08:08:03;99664.28;;;19.52;89.50
16690;BME280;8458;52.220;9.884;2023-08-06T08:10:30;99661.38;;;19.61;89.74
16690;BME280;8458;52.220;9.884;2023-08-06T08:12:58;99672.28;;;19.63;87.95
16690;BME280;8458;52.220;9.884;2023-08-06T08:15:25;99665.59;;;19.67;88.39
16690;BME280;8458;52.220;9.884;2023-08-06T08:17:52;99666.41;;;19.68;89.13
16690;BME280;8458;52.220;9.884;2023-08-06T08:20:18;99663.38;;;19.73;88.98
16690;BME280;8458;52.220;9.884;2023-08-06T08:22:45;99662.66;;;19.64;89.09
16690;BME280;8458;52.220;9.884;2023-08-06T08:25:11;99675.31;;;19.70;90.28
16690;BME280;8458;52.220;9.884;2023-08-06T08:27:38;99662.00;;;19.79;91.42
16690;BME280;8458;52.220;9.884;2023-08-06T08:30:07;99666.19;;;19.85;91.63
16690;BME280;8458;52.220;9.884;2023-08-06T08:32:33;99665.75;;;19.96;90.33
16690;BME280;8458;52.220;9.884;2023-08-06T08:35:00;99667.00;;;19.86;88.60
16690;BME280;8458;52.220;9.884;2023-08-06T08:37:26;99666.66;;;19.87;90.73
16690;BME280;8458;52.220;9.884;2023-08-06T08:39:53;99666.19;;;19.85;90.26
16690;BME280;8458;52.220;9.884;2023-08-06T08:42:19;99668.06;;;19.94;90.41
16690;BME280;8458;52.220;9.884;2023-08-06T08:44:46;99662.06;;;20.08;90.27
16690;BME280;8458;52.220;9.884;2023-08-06T08:47:14;99659.94;;;20.17;86.59
16690;BME280;8458;52.220;9.884;2023-08-06T08:49:42;99653.25;;;20.21;85.56
16690;BME280;8458;52.220;9.884;2023-08-06T08:52:10;99661.00;;;20.24;85.39
16690;BME280;8458;52.220;9.884;2023-08-06T08:54:38;99657.94;;;20.30;84.32
16690;BME280;8458;52.220;9.884;2023-08-06T08:57:05;99652.28;;;20.42;83.69
16690;BME280;8458;52.220;9.884;2023-08-06T08:59:33;99655.28;;;20.49;84.35
16690;BME280;8458;52.220;9.884;2023-08-06T09:02:01;99654.81;;;20.59;84.32
16690;BME280;8458;52.220;9.884;2023-08-06T09:04:29;99653.63;;;20.60;82.29
16690;BME280;8458;52.220;9.884;2023-08-06T09:06:58;99646.72;;;20.58;80.93
16690;BME280;8458;52.220;9.884;2023-08-06T09:09:28;99646.13;;;20.52;81.32
16690;BME280;8458;52.220;9.884;2023-08-06T09:12:00;99643.81;;;20.54;82.50
16690;BME280;8458;52.220;9.884;2023-08-06T09:14:27;99643.53;;;20.59;84.55
16690;BME280;8458;52.220;9.884;2023-08-06T09:16:54;99646.13;;;20.65;85.49
16690;BME280;8458;52.220;9.884;2023-08-06T09:19:20;99643.53;;;20.59;86.01
16690;BME280;8458;52.220;9.884;2023-08-06T09:21:50;99641.72;;;20.51;85.08
16690;BME280;8458;52.220;9.884;2023-08-06T09:24:17;99645.00;;;20.41;84.82
16690;BME280;8458;52.220;9.884;2023-08-06T09:26:44;99645.75;;;20.26;84.85
16690;BME280;8458;52.220;9.884;2023-08-06T09:29:11;99642.13;;;20.25;85.95
16690;BME280;8458;52.220;9.884;2023-08-06T09:31:41;99635.19;;;20.35;85.83
16690;BME280;8458;52.220;9.884;2023-08-06T09:34:11;99643.91;;;20.17;83.82
16690;BME280;8458;52.220;9.884;2023-08-06T09:36:41;99641.78;;;20.27;85.16
16690;BME280;8458;52.220;9.884;2023-08-06T09:39:14;99647.38;;;20.39;85.21
16690;BME280;8458;52.220;9.884;2023-08-06T09:41:41;99643.44;;;20.56;83.91
16690;BME280;8458;52.220;9.884;2023-08-06T09:44:15;99642.13;;;20.66;80.85
16690;BME280;8458;52.220;9.884;2023-08-06T09:46:42;99644.47;;;20.76;81.17
16690;BME280;8458;52.220;9.884;2023-08-06T09:49:08;99630.31;;;20.88;82.18
16690;BME280;8458;52.220;9.884;2023-08-06T09:51:36;99632.41;;;20.91;79.22
16690;BME280;8458;52.220;9.884;2023-08-06T09:54:05;99633.22;;;20.92;78.12
16690;BME280;8458;52.220;9.884;2023-08-06T09:56:34;99630.88;;;21.10;77.76
16690;BME280;8458;52.220;9.884;2023-08-06T09:59:04;99627.00;;;21.30;78.03
16690;BME280;8458;52.220;9.884;2023-08-06T10:01:31;99622.53;;;21.45;76.00
16690;BME280;8458;52.220;9.884;2023-08-06T10:03:59;99617.03;;;21.49;73.90
16690;BME280;8458;52.220;9.884;2023-08-06T10:06:26;99613.00;;;21.50;73.74
16690;BME280;8458;52.220;9.884;2023-08-06T10:08:54;99609.63;;;21.60;75.73
16690;BME280;8458;52.220;9.884;2023-08-06T10:11:21;99614.81;;;21.74;77.83
16690;BME280;8458;52.220;9.884;2023-08-06T10:13:53;99624.44;;;21.89;79.47
16690;BME280;8458;52.220;9.884;2023-08-06T10:16:22;99610.66;;;22.03;76.38
16690;BME280;8458;52.220;9.884;2023-08-06T10:18:49;99602.78;;;22.13;74.74
16690;BME280;8458;52.220;9.884;2023-08-06T10:21:16;99611.50;;;22.24;72.11
16690;BME280;8458;52.220;9.884;2023-08-06T10:23:43;99599.19;;;22.32;70.59
16690;BME280;8458;52.220;9.884;2023-08-06T10:26:09;99599.72;;;22.37;71.06
16690;BME280;8458;52.220;9.884;2023-08-06T10:28:37;99593.47;;;22.48;71.93
16690;BME280;8458;52.220;9.884;2023-08-06T10:31:05;99600.16;;;22.59;68.89
16690;BME280;8458;52.220;9.884;2023-08-06T10:33:42;99593.84;;;22.66;70.36
16690;BME280;8458;52.220;9.884;2023-08-06T10:36:09;99591.22;;;22.77;68.28
16690;BME280;8458;52.220;9.884;2023-08-06T10:38:44;99585.41;;;22.89;73.41
16690;BME280;8458;52.220;9.884;2023-08-06T10:41:15;99583.16;;;22.98;72.02
16690;BME280;8458;52.220;9.884;2023-08-06T10:43:42;99580.69;;;22.97;71.86
16690;BME280;8458;52.220;9.884;2023-08-06T10:46:21;99582.31;;;22.74;69.10
16690;BME280;8458;52.220;9.884;2023-08-06T10:48:49;99577.53;;;22.79;71.15
16690;BME280;8458;52.220;9.884;2023-08-06T10:51:16;99574.88;;;22.66;69.95
16690;BME280;8458;52.220;9.884;2023-08-06T10:53:43;99580.34;;;22.36;67.28
16690;BME280;8458;52.220;9.884;2023-08-06T10:56:13;99569.69;;;22.49;68.44
16690;BME280;8458;52.220;9.884;2023-08-06T10:58:40;99573.19;;;22.42;69.32
16690;BME280;8458;52.220;9.884;2023-08-06T11:01:07;99568.78;;;22.45;69.74
16690;BME280;8458;52.220;9.884;2023-08-06T11:03:36;99556.78;;;22.71;71.12
16690;BME280;8458;52.220;9.884;2023-08-06T11:06:03;99557.50;;;22.87;69.74
16690;BME280;8458;52.220;9.884;2023-08-06T11:08:34;99554.00;;;22.94;67.22
16690;BME280;8458;52.220;9.884;2023-08-06T11:11:19;99557.72;;;22.98;62.20
16690;BME280;8458;52.220;9.884;2023-08-06T11:13:46;99560.41;;;22.91;65.89
16690;BME280;8458;52.220;9.884;2023-08-06T11:16:13;99553.63;;;22.96;67.53
16690;BME280;8458;52.220;9.884;2023-08-06T11:18:42;99550.13;;;23.02;66.55
16690;BME280;8458;52.220;9.884;2023-08-06T11:21:09;99545.53;;;23.17;66.59
16690;BME280;8458;52.220;9.884;2023-08-06T11:23:37;99544.13;;;23.27;61.68
16690;BME280;8458;52.220;9.884;2023-08-06T11:26:03;99536.88;;;23.30;60.67
16690;BME280;8458;52.220;9.884;2023-08-06T11:28:30;99545.72;;;23.28;61.14
16690;BME280;8458;52.220;9.884;2023-08-06T11:30:58;99531.03;;;23.19;62.82
16690;BME280;8458;52.220;9.884;2023-08-06T11:33:28;99531.28;;;23.33;63.45
16690;BME280;8458;52.220;9.884;2023-08-06T11:35:57;99536.34;;;23.47;59.26
16690;BME280;8458;52.220;9.884;2023-08-06T11:38:25;99538.13;;;23.59;61.72
16690;BME280;8458;52.220;9.884;2023-08-06T11:40:51;99528.66;;;23.74;59.09
16690;BME280;8458;52.220;9.884;2023-08-06T11:43:19;99523.22;;;23.89;57.09
16690;BME280;8458;52.220;9.884;2023-08-06T11:45:46;99531.53;;;24.05;58.42
16690;BME280;8458;52.220;9.884;2023-08-06T11:48:12;99523.63;;;24.21;56.23
16690;BME280;8458;52.220;9.884;2023-08-06T11:50:39;99526.97;;;24.27;54.55
16690;BME280;8458;52.220;9.884;2023-08-06T11:53:06;99525.84;;;24.35;56.16
16690;BME280;8458;52.220;9.884;2023-08-06T11:55:33;99519.91;;;24.47;59.45
16690;BME280;8458;52.220;9.884;2023-08-06T11:58:03;99518.19;;;24.39;57.72
16690;BME280;8458;52.220;9.884;2023-08-06T12:00:30;99521.53;;;24.48;58.82
16690;BME280;8458;52.220;9.884;2023-08-06T12:02:57;99511.63;;;24.65;58.21
16690;BME280;8458;52.220;9.884;2023-08-06T12:05:28;99506.97;;;24.46;55.34
16690;BME280;8458;52.220;9.884;2023-08-06T12:07:56;99503.94;;;24.66;58.41
16690;BME280;8458;52.220;9.884;2023-08-06T12:10:26;99518.22;;;24.77;56.84
16690;BME280;8458;52.220;9.884;2023-08-06T12:12:53;99504.16;;;24.87;57.58
16690;BME280;8458;52.220;9.884;2023-08-06T12:15:20;99506.69;;;24.96;56.11
16690;BME280;8458;52.220;9.884;2023-08-06T12:17:47;99505.19;;;25.13;53.54
16690;BME280;8458;52.220;9.884;2023-08-06T12:20:15;99497.09;;;25.15;51.93
16690;BME280;8458;52.220;9.884;2023-08-06T12:22:42;99489.06;;;25.24;53.57
16690;BME280;8458;52.220;9.884;2023-08-06T12:25:09;99482.19;;;25.26;49.79
16690;BME280;8458;52.220;9.884;2023-08-06T12:27:40;99490.25;;;25.16;51.71
16690;BME280;8458;52.220;9.884;2023-08-06T12:30:07;99486.25;;;25.24;53.28
16690;BME280;8458;52.220;9.884;2023-08-06T12:32:34;99485.44;;;25.28;54.86
16690;BME280;8458;52.220;9.884;2023-08-06T12:35:01;99494.59;;;25.06;55.17
16690;BME280;8458;52.220;9.884;2023-08-06T12:37:28;99493.00;;;25.09;56.32
16690;BME280;8458;52.220;9.884;2023-08-06T12:39:54;99493.69;;;24.95;56.75
16690;BME280;8458;52.220;9.884;2023-08-06T12:42:21;99493.34;;;25.00;56.37
16690;BME280;8458;52.220;9.884;2023-08-06T12:44:49;99494.53;;;24.96;56.27
16690;BME280;8458;52.220;9.884;2023-08-06T12:47:15;99493.75;;;24.99;56.06
16690;BME280;8458;52.220;9.884;2023-08-06T12:49:42;99489.75;;;25.07;56.54
16690;BME280;8458;52.220;9.884;2023-08-06T12:52:08;99495.34;;;25.00;55.57
16690;BME280;8458;52.220;9.884;2023-08-06T12:54:37;99483.50;;;24.83;56.01
16690;BME280;8458;52.220;9.884;2023-08-06T12:57:04;99494.34;;;24.74;57.54
16690;BME280;8458;52.220;9.884;2023-08-06T12:59:31;99492.88;;;24.95;58.18
16690;BME280;8458;52.220;9.884;2023-08-06T13:02:00;99496.09;;;24.90;56.73
16690;BME280;8458;52.220;9.884;2023-08-06T13:04:27;99489.47;;;24.75;55.86